logo
Rechercher aéroport 
image banner adimage banner adimage banner ad
image banner ad

KNXP - Twentynine Palms Self

Situé à Twentynine Palms, United States

ICAO - NXP, IATA -

Données fournies par Airmate  

Information générale

Coordonnées: N34°17'46" W116°9'44"
Élévation : 2051 feet MSL.
Variation magnétique : 14° East
Voir autres Aéroports à California

Données opérationnelles

Special qualification required
Heure actuelle UTC:
Heure actuelle locale:
Météo
METAR: KNXP 281056Z AUTO 35003KT 10SM CLR 24/08 A3004 RMK AO2 SLP134 T02390078
TAF: TAF KNXP 2809/2909 VRB05KT 9999 FEW100 QNH2997INS BECMG 2818/2820 14010KT 9999 FEW100 QNH3000INS TEMPO 2820/2902 14010G20KT T24/2813Z T37/2822Z
Voir NOTAMs / SUP AIP / TFR affectant cet aéroport [VIEW]
Fréquences de communication: [VIEW]

Pistes:

Identifiant RWYQFULongueur (ft)Largeur (ft)SurfaceLDA (ft)
108015150OTHER
288015150OTHER

Coordonnées de l'aéroport

Adresse: Twentynine Palms United States

Vue satellite de KNXP